sensor_id;sensor_type;location;lat;lon;timestamp;P1;durP1;ratioP1;P2;durP2;ratioP2
15528;SDS011;7866;52.280;9.500;2023-07-24T00:02:06;1.10;;;1.10;;
15528;SDS011;7866;52.280;9.500;2023-07-24T00:07:09;1.60;;;1.50;;
15528;SDS011;7866;52.280;9.500;2023-07-24T00:12:10;1.52;;;1.42;;
15528;SDS011;7866;52.280;9.500;2023-07-24T00:17:12;1.35;;;1.30;;
15528;SDS011;7866;52.280;9.500;2023-07-24T00:22:15;1.48;;;1.45;;
15528;SDS011;7866;52.280;9.500;2023-07-24T00:27:17;1.50;;;1.40;;
15528;SDS011;7866;52.280;9.500;2023-07-24T00:32:18;1.60;;;1.50;;
15528;SDS011;7866;52.280;9.500;2023-07-24T00:37:21;1.70;;;1.60;;
15528;SDS011;7866;52.280;9.500;2023-07-24T00:42:23;1.65;;;1.55;;
15528;SDS011;7866;52.280;9.500;2023-07-24T00:47:25;2.00;;;1.90;;
15528;SDS011;7866;52.280;9.500;2023-07-24T00:52:29;2.25;;;1.52;;
15528;SDS011;7866;52.280;9.500;2023-07-24T00:57:31;1.67;;;1.58;;
15528;SDS011;7866;52.280;9.500;2023-07-24T01:02:33;2.42;;;2.10;;
15528;SDS011;7866;52.280;9.500;2023-07-24T01:07:37;2.10;;;2.00;;
15528;SDS011;7866;52.280;9.500;2023-07-24T01:12:39;2.70;;;2.50;;
15528;SDS011;7866;52.280;9.500;2023-07-24T01:17:50;2.42;;;2.33;;
15528;SDS011;7866;52.280;9.500;2023-07-24T01:23:03;2.33;;;2.22;;
15528;SDS011;7866;52.280;9.500;2023-07-24T01:28:16;2.63;;;2.47;;
15528;SDS011;7866;52.280;9.500;2023-07-24T01:33:18;2.47;;;2.28;;
15528;SDS011;7866;52.280;9.500;2023-07-24T01:38:20;2.67;;;2.53;;
15528;SDS011;7866;52.280;9.500;2023-07-24T01:43:24;3.05;;;2.50;;
15528;SDS011;7866;52.280;9.500;2023-07-24T01:48:27;2.60;;;2.40;;
15528;SDS011;7866;52.280;9.500;2023-07-24T01:53:28;2.47;;;2.28;;
15528;SDS011;7866;52.280;9.500;2023-07-24T01:58:31;2.58;;;2.38;;
15528;SDS011;7866;52.280;9.500;2023-07-24T02:03:33;2.85;;;2.28;;
15528;SDS011;7866;52.280;9.500;2023-07-24T02:08:34;3.15;;;2.30;;
15528;SDS011;7866;52.280;9.500;2023-07-24T02:13:37;2.08;;;1.98;;
15528;SDS011;7866;52.280;9.500;2023-07-24T02:18:40;2.35;;;2.20;;
15528;SDS011;7866;52.280;9.500;2023-07-24T02:23:42;2.35;;;2.13;;
15528;SDS011;7866;52.280;9.500;2023-07-24T02:28:45;2.40;;;2.30;;
15528;SDS011;7866;52.280;9.500;2023-07-24T02:33:47;2.15;;;2.05;;
15528;SDS011;7866;52.280;9.500;2023-07-24T02:38:48;2.60;;;2.40;;
15528;SDS011;7866;52.280;9.500;2023-07-24T02:43:51;2.50;;;2.10;;
15528;SDS011;7866;52.280;9.500;2023-07-24T02:48:53;1.90;;;1.80;;
15528;SDS011;7866;52.280;9.500;2023-07-24T02:53:55;2.67;;;1.90;;
15528;SDS011;7866;52.280;9.500;2023-07-24T02:58:58;1.80;;;1.70;;
15528;SDS011;7866;52.280;9.500;2023-07-24T03:03:59;2.05;;;1.95;;
15528;SDS011;7866;52.280;9.500;2023-07-24T03:09:02;1.80;;;1.70;;
15528;SDS011;7866;52.280;9.500;2023-07-24T03:14:05;2.70;;;1.80;;
15528;SDS011;7866;52.280;9.500;2023-07-24T03:19:07;1.65;;;1.48;;
15528;SDS011;7866;52.280;9.500;2023-07-24T03:24:09;2.42;;;1.77;;
15528;SDS011;7866;52.280;9.500;2023-07-24T03:29:12;1.95;;;1.80;;
15528;SDS011;7866;52.280;9.500;2023-07-24T03:34:13;1.75;;;1.65;;
15528;SDS011;7866;52.280;9.500;2023-07-24T03:39:15;1.70;;;1.60;;
15528;SDS011;7866;52.280;9.500;2023-07-24T03:49:20;2.00;;;1.90;;
15528;SDS011;7866;52.280;9.500;2023-07-24T03:54:22;2.00;;;1.90;;
15528;SDS011;7866;52.280;9.500;2023-07-24T03:59:24;2.00;;;1.90;;
15528;SDS011;7866;52.280;9.500;2023-07-24T04:04:27;2.10;;;2.00;;
15528;SDS011;7866;52.280;9.500;2023-07-24T04:09:29;2.17;;;1.80;;
15528;SDS011;7866;52.280;9.500;2023-07-24T04:14:30;1.65;;;1.55;;
15528;SDS011;7866;52.280;9.500;2023-07-24T04:19:33;1.95;;;1.63;;
15528;SDS011;7866;52.280;9.500;2023-07-24T04:24:35;2.03;;;1.90;;
15528;SDS011;7866;52.280;9.500;2023-07-24T04:29:37;4.47;;;2.13;;
15528;SDS011;7866;52.280;9.500;2023-07-24T04:34:40;2.25;;;1.83;;
15528;SDS011;7866;52.280;9.500;2023-07-24T04:39:41;2.08;;;1.90;;
15528;SDS011;7866;52.280;9.500;2023-07-24T04:44:43;2.78;;;1.90;;
15528;SDS011;7866;52.280;9.500;2023-07-24T04:49:46;2.63;;;1.83;;
15528;SDS011;7866;52.280;9.500;2023-07-24T04:54:47;1.92;;;1.83;;
15528;SDS011;7866;52.280;9.500;2023-07-24T04:59:49;2.53;;;1.75;;
15528;SDS011;7866;52.280;9.500;2023-07-24T05:04:52;2.20;;;1.95;;
15528;SDS011;7866;52.280;9.500;2023-07-24T05:09:54;3.17;;;1.70;;
15528;SDS011;7866;52.280;9.500;2023-07-24T05:14:55;2.38;;;1.90;;
15528;SDS011;7866;52.280;9.500;2023-07-24T05:19:58;2.42;;;1.70;;
15528;SDS011;7866;52.280;9.500;2023-07-24T05:25:00;2.58;;;1.63;;
15528;SDS011;7866;52.280;9.500;2023-07-24T05:30:01;1.70;;;1.60;;
15528;SDS011;7866;52.280;9.500;2023-07-24T05:35:05;3.60;;;1.88;;
15528;SDS011;7866;52.280;9.500;2023-07-24T05:40:08;1.65;;;1.55;;
15528;SDS011;7866;52.280;9.500;2023-07-24T05:45:10;3.45;;;1.65;;
15528;SDS011;7866;52.280;9.500;2023-07-24T05:50:13;2.78;;;1.90;;
15528;SDS011;7866;52.280;9.500;2023-07-24T05:55:15;2.38;;;2.15;;
15528;SDS011;7866;52.280;9.500;2023-07-24T06:00:17;1.73;;;1.60;;
15528;SDS011;7866;52.280;9.500;2023-07-24T06:05:20;3.80;;;1.85;;
15528;SDS011;7866;52.280;9.500;2023-07-24T06:10:22;1.80;;;1.70;;
15528;SDS011;7866;52.280;9.500;2023-07-24T06:15:23;2.08;;;1.98;;
15528;SDS011;7866;52.280;9.500;2023-07-24T06:20:26;5.65;;;2.00;;
15528;SDS011;7866;52.280;9.500;2023-07-24T06:25:28;2.88;;;1.73;;
15528;SDS011;7866;52.280;9.500;2023-07-24T06:30:29;1.90;;;1.80;;
15528;SDS011;7866;52.280;9.500;2023-07-24T06:35:32;2.25;;;2.05;;
15528;SDS011;7866;52.280;9.500;2023-07-24T06:40:34;4.28;;;2.33;;
15528;SDS011;7866;52.280;9.500;2023-07-24T06:45:36;2.25;;;1.90;;
15528;SDS011;7866;52.280;9.500;2023-07-24T06:50:39;2.40;;;1.90;;
15528;SDS011;7866;52.280;9.500;2023-07-24T06:55:41;2.97;;;2.35;;
15528;SDS011;7866;52.280;9.500;2023-07-24T07:00:42;2.58;;;2.22;;
15528;SDS011;7866;52.280;9.500;2023-07-24T07:05:45;2.65;;;1.80;;
15528;SDS011;7866;52.280;9.500;2023-07-24T07:10:47;2.17;;;2.08;;
15528;SDS011;7866;52.280;9.500;2023-07-24T07:15:56;2.60;;;2.40;;
15528;SDS011;7866;52.280;9.500;2023-07-24T07:20:59;2.50;;;2.30;;
15528;SDS011;7866;52.280;9.500;2023-07-24T07:26:00;3.05;;;2.47;;
15528;SDS011;7866;52.280;9.500;2023-07-24T07:31:02;3.03;;;2.50;;
15528;SDS011;7866;52.280;9.500;2023-07-24T07:36:05;3.63;;;2.53;;
15528;SDS011;7866;52.280;9.500;2023-07-24T07:41:07;3.78;;;2.72;;
15528;SDS011;7866;52.280;9.500;2023-07-24T07:46:08;2.47;;;2.28;;
15528;SDS011;7866;52.280;9.500;2023-07-24T07:51:12;4.80;;;2.30;;
15528;SDS011;7866;52.280;9.500;2023-07-24T07:56:14;2.17;;;1.92;;
15528;SDS011;7866;52.280;9.500;2023-07-24T08:01:15;2.40;;;2.17;;
15528;SDS011;7866;52.280;9.500;2023-07-24T08:06:18;2.95;;;2.28;;
15528;SDS011;7866;52.280;9.500;2023-07-24T08:11:21;3.72;;;2.20;;
15528;SDS011;7866;52.280;9.500;2023-07-24T08:16:22;2.63;;;2.42;;
15528;SDS011;7866;52.280;9.500;2023-07-24T08:21:25;7.75;;;2.72;;
15528;SDS011;7866;52.280;9.500;2023-07-24T08:26:27;2.70;;;2.50;;
15528;SDS011;7866;52.280;9.500;2023-07-24T08:31:29;4.70;;;2.95;;
15528;SDS011;7866;52.280;9.500;2023-07-24T08:36:32;3.20;;;2.97;;
15528;SDS011;7866;52.280;9.500;2023-07-24T08:41:33;3.30;;;3.00;;
15528;SDS011;7866;52.280;9.500;2023-07-24T08:46:38;3.95;;;3.08;;
15528;SDS011;7866;52.280;9.500;2023-07-24T08:51:42;3.55;;;3.25;;
15528;SDS011;7866;52.280;9.500;2023-07-24T08:56:45;2.95;;;2.75;;
15528;SDS011;7866;52.280;9.500;2023-07-24T09:01:50;3.08;;;2.85;;
15528;SDS011;7866;52.280;9.500;2023-07-24T09:06:53;3.40;;;3.10;;
15528;SDS011;7866;52.280;9.500;2023-07-24T09:11:57;3.08;;;2.85;;
15528;SDS011;7866;52.280;9.500;2023-07-24T09:17:03;2.80;;;2.60;;
15528;SDS011;7866;52.280;9.500;2023-07-24T09:22:10;3.53;;;3.22;;
15528;SDS011;7866;52.280;9.500;2023-07-24T09:27:12;3.25;;;3.05;;
15528;SDS011;7866;52.280;9.500;2023-07-24T09:32:20;3.35;;;3.15;;
15528;SDS011;7866;52.280;9.500;2023-07-24T09:37:25;5.47;;;4.22;;
15528;SDS011;7866;52.280;9.500;2023-07-24T09:42:28;3.42;;;3.22;;
15528;SDS011;7866;52.280;9.500;2023-07-24T09:47:31;4.03;;;3.10;;
15528;SDS011;7866;52.280;9.500;2023-07-24T09:52:33;3.05;;;2.83;;
15528;SDS011;7866;52.280;9.500;2023-07-24T09:57:38;3.55;;;3.25;;
15528;SDS011;7866;52.280;9.500;2023-07-24T10:02:41;5.10;;;3.20;;
15528;SDS011;7866;52.280;9.500;2023-07-24T10:07:44;3.40;;;3.10;;
15528;SDS011;7866;52.280;9.500;2023-07-24T10:12:47;5.00;;;3.30;;
15528;SDS011;7866;52.280;9.500;2023-07-24T10:17:49;3.42;;;3.17;;
15528;SDS011;7866;52.280;9.500;2023-07-24T10:23:03;3.42;;;3.13;;
15528;SDS011;7866;52.280;9.500;2023-07-24T10:28:05;3.25;;;2.95;;
15528;SDS011;7866;52.280;9.500;2023-07-24T10:33:11;4.82;;;3.47;;
15528;SDS011;7866;52.280;9.500;2023-07-24T10:38:16;3.80;;;3.50;;
15528;SDS011;7866;52.280;9.500;2023-07-24T10:43:18;4.00;;;3.60;;
15528;SDS011;7866;52.280;9.500;2023-07-24T10:48:21;3.85;;;3.55;;
15528;SDS011;7866;52.280;9.500;2023-07-24T10:53:28;4.28;;;3.90;;
15528;SDS011;7866;52.280;9.500;2023-07-24T10:58:30;3.80;;;3.50;;
15528;SDS011;7866;52.280;9.500;2023-07-24T11:03:34;4.40;;;4.00;;
15528;SDS011;7866;52.280;9.500;2023-07-24T11:08:38;4.45;;;4.05;;
15528;SDS011;7866;52.280;9.500;2023-07-24T11:13:40;4.65;;;4.30;;
15528;SDS011;7866;52.280;9.500;2023-07-24T11:18:45;5.00;;;4.60;;
15528;SDS011;7866;52.280;9.500;2023-07-24T11:23:50;4.80;;;4.40;;
15528;SDS011;7866;52.280;9.500;2023-07-24T11:28:53;7.47;;;4.72;;
15528;SDS011;7866;52.280;9.500;2023-07-24T11:33:55;4.93;;;4.53;;
15528;SDS011;7866;52.280;9.500;2023-07-24T11:38:59;4.85;;;4.38;;
15528;SDS011;7866;52.280;9.500;2023-07-24T11:44:00;4.05;;;3.75;;
15528;SDS011;7866;52.280;9.500;2023-07-24T11:49:03;5.05;;;3.70;;
15528;SDS011;7866;52.280;9.500;2023-07-24T11:54:07;3.42;;;3.13;;
15528;SDS011;7866;52.280;9.500;2023-07-24T11:59:11;3.47;;;3.25;;
15528;SDS011;7866;52.280;9.500;2023-07-24T12:04:13;4.05;;;3.60;;
15528;SDS011;7866;52.280;9.500;2023-07-24T12:09:17;4.70;;;3.28;;
15528;SDS011;7866;52.280;9.500;2023-07-24T12:14:19;3.97;;;3.58;;
15528;SDS011;7866;52.280;9.500;2023-07-24T12:19:20;3.75;;;3.40;;
15528;SDS011;7866;52.280;9.500;2023-07-24T12:24:23;3.78;;;3.50;;
15528;SDS011;7866;52.280;9.500;2023-07-24T12:29:25;4.30;;;3.78;;
15528;SDS011;7866;52.280;9.500;2023-07-24T12:34:26;4.10;;;3.70;;
15528;SDS011;7866;52.280;9.500;2023-07-24T12:39:29;3.97;;;3.58;;
15528;SDS011;7866;52.280;9.500;2023-07-24T12:44:31;3.60;;;3.30;;
15528;SDS011;7866;52.280;9.500;2023-07-24T12:49:33;3.72;;;3.42;;
15528;SDS011;7866;52.280;9.500;2023-07-24T12:54:36;4.22;;;3.40;;
15528;SDS011;7866;52.280;9.500;2023-07-24T12:59:38;3.53;;;3.33;;
15528;SDS011;7866;52.280;9.500;2023-07-24T13:04:40;3.25;;;2.90;;
15528;SDS011;7866;52.280;9.500;2023-07-24T13:09:43;3.40;;;3.10;;
15528;SDS011;7866;52.280;9.500;2023-07-24T13:14:45;2.97;;;2.78;;
15528;SDS011;7866;52.280;9.500;2023-07-24T13:19:47;3.08;;;2.88;;
15528;SDS011;7866;52.280;9.500;2023-07-24T13:24:50;3.50;;;2.65;;
15528;SDS011;7866;52.280;9.500;2023-07-24T13:29:51;3.15;;;2.95;;
15528;SDS011;7866;52.280;9.500;2023-07-24T13:34:53;3.35;;;2.70;;
15528;SDS011;7866;52.280;9.500;2023-07-24T13:39:56;3.00;;;2.80;;
15528;SDS011;7866;52.280;9.500;2023-07-24T13:44:57;3.63;;;2.92;;
15528;SDS011;7866;52.280;9.500;2023-07-24T13:49:59;3.00;;;2.65;;
15528;SDS011;7866;52.280;9.500;2023-07-24T13:55:05;2.90;;;2.70;;
15528;SDS011;7866;52.280;9.500;2023-07-24T14:00:07;3.38;;;3.00;;
15528;SDS011;7866;52.280;9.500;2023-07-24T14:05:09;4.43;;;2.60;;
15528;SDS011;7866;52.280;9.500;2023-07-24T14:10:12;1.98;;;1.88;;
15528;SDS011;7866;52.280;9.500;2023-07-24T14:15:14;1.92;;;1.70;;
15528;SDS011;7866;52.280;9.500;2023-07-24T14:20:15;1.98;;;1.88;;
15528;SDS011;7866;52.280;9.500;2023-07-24T14:25:18;2.60;;;2.13;;
15528;SDS011;7866;52.280;9.500;2023-07-24T14:30:20;2.63;;;1.88;;
15528;SDS011;7866;52.280;9.500;2023-07-24T14:35:22;2.08;;;1.90;;
15528;SDS011;7866;52.280;9.500;2023-07-24T14:40:25;1.90;;;1.80;;
15528;SDS011;7866;52.280;9.500;2023-07-24T14:45:26;2.30;;;2.00;;
15528;SDS011;7866;52.280;9.500;2023-07-24T14:50:28;2.03;;;1.92;;
15528;SDS011;7866;52.280;9.500;2023-07-24T14:55:31;1.95;;;1.80;;
15528;SDS011;7866;52.280;9.500;2023-07-24T15:00:32;1.90;;;1.80;;
15528;SDS011;7866;52.280;9.500;2023-07-24T15:05:34;2.17;;;1.98;;
15528;SDS011;7866;52.280;9.500;2023-07-24T15:10:37;1.88;;;1.77;;
15528;SDS011;7866;52.280;9.500;2023-07-24T15:15:39;2.00;;;1.90;;
15528;SDS011;7866;52.280;9.500;2023-07-24T15:20:40;1.98;;;1.80;;
15528;SDS011;7866;52.280;9.500;2023-07-24T15:25:43;1.85;;;1.75;;
15528;SDS011;7866;52.280;9.500;2023-07-24T15:30:45;1.98;;;1.83;;
15528;SDS011;7866;52.280;9.500;2023-07-24T15:35:48;1.70;;;1.60;;
15528;SDS011;7866;52.280;9.500;2023-07-24T15:40:51;1.75;;;1.65;;
15528;SDS011;7866;52.280;9.500;2023-07-24T15:45:53;3.80;;;2.03;;
15528;SDS011;7866;52.280;9.500;2023-07-24T15:50:55;2.00;;;1.90;;
15528;SDS011;7866;52.280;9.500;2023-07-24T15:55:58;2.10;;;1.90;;
15528;SDS011;7866;52.280;9.500;2023-07-24T16:01:00;2.17;;;1.83;;
15528;SDS011;7866;52.280;9.500;2023-07-24T16:06:02;1.95;;;1.83;;
15528;SDS011;7866;52.280;9.500;2023-07-24T16:11:07;2.03;;;1.83;;
15528;SDS011;7866;52.280;9.500;2023-07-24T16:16:09;1.80;;;1.70;;
15528;SDS011;7866;52.280;9.500;2023-07-24T16:21:11;2.30;;;1.60;;
15528;SDS011;7866;52.280;9.500;2023-07-24T16:26:14;1.63;;;1.52;;
15528;SDS011;7866;52.280;9.500;2023-07-24T16:31:15;1.80;;;1.70;;
15528;SDS011;7866;52.280;9.500;2023-07-24T16:36:17;1.60;;;1.50;;
15528;SDS011;7866;52.280;9.500;2023-07-24T16:41:20;1.88;;;1.77;;
15528;SDS011;7866;52.280;9.500;2023-07-24T16:46:21;1.80;;;1.70;;
15528;SDS011;7866;52.280;9.500;2023-07-24T16:51:23;1.67;;;1.58;;
15528;SDS011;7866;52.280;9.500;2023-07-24T16:56:26;1.77;;;1.52;;
15528;SDS011;7866;52.280;9.500;2023-07-24T17:01:28;1.85;;;1.73;;
15528;SDS011;7866;52.280;9.500;2023-07-24T17:06:31;1.70;;;1.60;;
15528;SDS011;7866;52.280;9.500;2023-07-24T17:11:34;1.65;;;1.55;;
15528;SDS011;7866;52.280;9.500;2023-07-24T17:16:35;1.80;;;1.70;;
15528;SDS011;7866;52.280;9.500;2023-07-24T17:21:37;1.73;;;1.60;;
15528;SDS011;7866;52.280;9.500;2023-07-24T17:26:40;1.70;;;1.60;;
15528;SDS011;7866;52.280;9.500;2023-07-24T17:31:42;2.65;;;1.92;;
15528;SDS011;7866;52.280;9.500;2023-07-24T17:36:44;1.85;;;1.55;;
15528;SDS011;7866;52.280;9.500;2023-07-24T17:41:47;2.67;;;1.90;;
15528;SDS011;7866;52.280;9.500;2023-07-24T17:46:48;1.90;;;1.80;;
15528;SDS011;7866;52.280;9.500;2023-07-24T17:51:50;1.80;;;1.70;;
15528;SDS011;7866;52.280;9.500;2023-07-24T17:56:53;1.90;;;1.80;;
15528;SDS011;7866;52.280;9.500;2023-07-24T18:01:57;2.00;;;1.73;;
15528;SDS011;7866;52.280;9.500;2023-07-24T18:06:59;1.40;;;1.30;;
15528;SDS011;7866;52.280;9.500;2023-07-24T18:12:02;2.05;;;1.50;;
15528;SDS011;7866;52.280;9.500;2023-07-24T18:17:04;2.63;;;1.92;;
15528;SDS011;7866;52.280;9.500;2023-07-24T18:22:06;2.95;;;1.67;;
15528;SDS011;7866;52.280;9.500;2023-07-24T18:27:09;1.77;;;1.52;;
15528;SDS011;7866;52.280;9.500;2023-07-24T18:32:11;1.70;;;1.60;;
15528;SDS011;7866;52.280;9.500;2023-07-24T18:37:12;2.17;;;1.98;;
15528;SDS011;7866;52.280;9.500;2023-07-24T18:42:15;4.50;;;2.83;;
15528;SDS011;7866;52.280;9.500;2023-07-24T18:47:17;3.45;;;2.33;;
15528;SDS011;7866;52.280;9.500;2023-07-24T18:52:19;2.30;;;2.10;;
15528;SDS011;7866;52.280;9.500;2023-07-24T18:57:22;2.58;;;2.35;;
15528;SDS011;7866;52.280;9.500;2023-07-24T19:02:23;2.42;;;2.22;;
15528;SDS011;7866;52.280;9.500;2023-07-24T19:07:25;2.50;;;2.30;;
15528;SDS011;7866;52.280;9.500;2023-07-24T19:12:28;2.30;;;2.10;;
15528;SDS011;7866;52.280;9.500;2023-07-24T19:17:30;2.28;;;2.08;;
15528;SDS011;7866;52.280;9.500;2023-07-24T19:22:31;3.80;;;2.50;;
15528;SDS011;7866;52.280;9.500;2023-07-24T19:27:34;2.42;;;2.22;;
15528;SDS011;7866;52.280;9.500;2023-07-24T19:32:36;2.58;;;2.25;;
15528;SDS011;7866;52.280;9.500;2023-07-24T19:37:39;3.40;;;2.45;;
15528;SDS011;7866;52.280;9.500;2023-07-24T19:42:42;2.92;;;2.40;;
15528;SDS011;7866;52.280;9.500;2023-07-24T19:47:44;2.53;;;2.33;;
15528;SDS011;7866;52.280;9.500;2023-07-24T19:52:46;4.18;;;2.40;;
15528;SDS011;7866;52.280;9.500;2023-07-24T19:57:50;2.38;;;2.13;;
15528;SDS011;7866;52.280;9.500;2023-07-24T20:02:52;3.05;;;2.33;;
15528;SDS011;7866;52.280;9.500;2023-07-24T20:07:53;3.20;;;2.75;;
15528;SDS011;7866;52.280;9.500;2023-07-24T20:12:56;3.33;;;2.47;;
15528;SDS011;7866;52.280;9.500;2023-07-24T20:17:58;3.17;;;2.67;;
15528;SDS011;7866;52.280;9.500;2023-07-24T20:23:00;2.95;;;2.75;;
15528;SDS011;7866;52.280;9.500;2023-07-24T20:28:03;3.50;;;3.20;;
15528;SDS011;7866;52.280;9.500;2023-07-24T20:33:05;3.55;;;2.60;;
15528;SDS011;7866;52.280;9.500;2023-07-24T20:38:07;3.35;;;3.15;;
15528;SDS011;7866;52.280;9.500;2023-07-24T20:43:10;4.45;;;3.22;;
15528;SDS011;7866;52.280;9.500;2023-07-24T20:48:11;3.70;;;3.40;;
15528;SDS011;7866;52.280;9.500;2023-07-24T20:53:15;3.78;;;3.25;;
15528;SDS011;7866;52.280;9.500;2023-07-24T20:58:18;3.70;;;3.40;;
15528;SDS011;7866;52.280;9.500;2023-07-24T21:03:20;4.07;;;3.40;;
15528;SDS011;7866;52.280;9.500;2023-07-24T21:08:21;3.72;;;3.22;;
15528;SDS011;7866;52.280;9.500;2023-07-24T21:13:25;3.67;;;3.38;;
15528;SDS011;7866;52.280;9.500;2023-07-24T21:18:26;4.22;;;3.17;;
15528;SDS011;7866;52.280;9.500;2023-07-24T21:23:28;3.45;;;3.25;;
15528;SDS011;7866;52.280;9.500;2023-07-24T21:28:31;3.40;;;3.10;;
15528;SDS011;7866;52.280;9.500;2023-07-24T21:33:33;3.97;;;3.45;;
15528;SDS011;7866;52.280;9.500;2023-07-24T21:38:37;4.55;;;3.25;;
15528;SDS011;7866;52.280;9.500;2023-07-24T21:43:40;4.63;;;3.20;;
15528;SDS011;7866;52.280;9.500;2023-07-24T21:48:42;3.20;;;2.67;;
15528;SDS011;7866;52.280;9.500;2023-07-24T21:53:44;3.67;;;2.95;;
15528;SDS011;7866;52.280;9.500;2023-07-24T21:58:47;4.57;;;2.75;;
15528;SDS011;7866;52.280;9.500;2023-07-24T22:03:49;3.83;;;2.70;;
15528;SDS011;7866;52.280;9.500;2023-07-24T22:08:51;3.22;;;2.92;;
15528;SDS011;7866;52.280;9.500;2023-07-24T22:13:54;3.92;;;2.50;;
15528;SDS011;7866;52.280;9.500;2023-07-24T22:18:55;3.45;;;2.42;;
15528;SDS011;7866;52.280;9.500;2023-07-24T22:23:57;4.55;;;2.50;;
15528;SDS011;7866;52.280;9.500;2023-07-24T22:29:00;6.53;;;2.58;;
15528;SDS011;7866;52.280;9.500;2023-07-24T22:34:02;6.65;;;2.60;;
15528;SDS011;7866;52.280;9.500;2023-07-24T22:39:03;5.00;;;2.03;;
15528;SDS011;7866;52.280;9.500;2023-07-24T22:44:08;2.53;;;2.33;;
15528;SDS011;7866;52.280;9.500;2023-07-24T22:49:10;4.35;;;2.28;;
15528;SDS011;7866;52.280;9.500;2023-07-24T22:54:11;6.53;;;2.05;;
15528;SDS011;7866;52.280;9.500;2023-07-24T22:59:18;10.18;;;2.20;;
15528;SDS011;7866;52.280;9.500;2023-07-24T23:04:22;4.72;;;1.70;;
15528;SDS011;7866;52.280;9.500;2023-07-24T23:09:25;5.40;;;1.88;;
15528;SDS011;7866;52.280;9.500;2023-07-24T23:14:28;3.70;;;1.65;;
15528;SDS011;7866;52.280;9.500;2023-07-24T23:19:30;4.20;;;2.00;;
15528;SDS011;7866;52.280;9.500;2023-07-24T23:24:31;4.50;;;2.20;;
15528;SDS011;7866;52.280;9.500;2023-07-24T23:29:35;2.58;;;2.00;;
15528;SDS011;7866;52.280;9.500;2023-07-24T23:34:36;2.95;;;1.73;;
15528;SDS011;7866;52.280;9.500;2023-07-24T23:39:38;4.25;;;1.80;;
15528;SDS011;7866;52.280;9.500;2023-07-24T23:44:41;5.00;;;1.90;;
15528;SDS011;7866;52.280;9.500;2023-07-24T23:49:42;3.35;;;1.60;;
15528;SDS011;7866;52.280;9.500;2023-07-24T23:54:44;3.85;;;1.85;;
15528;SDS011;7866;52.280;9.500;2023-07-24T23:59:47;2.80;;;1.42;;
